Main page
METAR-TAF:

METAR-TAF

Airports :

Istanbul Atatürk Airport

Istanbul Atatürk, Turkey

latitude: 40-58N, longitude: 028-49E, elevation: 48 m

Current weather observation

The report was made 44 minutes ago, at 21:50 UTC
Wind 7 kt from the Northeast, varying between North/Northeast and East/Southeast
Temperature 22°C
Humidity 73%
Pressure 1017 hPa
Visibility 10 km or more
no clouds below 1500 m and no cumulonimbus

METAR: LTBA 212150Z 05007KT 020V110 CAVOK 22/17 Q1017 NOSIG RMK RWY17L 04007KT RWY05 04007KT RWY23 05007KT

Time: 01:34 (22:34 UTC)

Forecast

The report was made 5 hours and 54 minutes ago, at 16:40 UTC
Forecast valid from 21 at 18 UTC to 22 at 24 UTC
Wind 8 kt from the Northeast
Visibility 10 km or more
Few clouds at a height of 3500 ft
Broken clouds at a height of 20000 ft
Becoming
from 22 at 09 UTC to 22 at 12 UTC
Visibility 10 km or more
no clouds below 1500 m and no cumulonimbus

TAF: LTBA 211640Z 2118/2224 04008KT 9999 FEW035 BKN200 BECMG 2209/2212 CAVOK

Weather observations and forecasts of more than 4000 airports (METAR and TAF reports).

The available stations are represented by yellow and red dots on the map.

Hover mouse over dot to see the name of the station.

Then click to see weather observations and forecasts.

To change the map : click on the green buttons with a black cross to zoom in, on the green button with a dash to zoom out, or on the green arrows for adjacent maps.


METAR-TAF: